createdAt,value
2018-03-29T00:00:13.634Z,72.87
2018-03-29T00:02:41.660Z,83.33
2018-03-29T00:05:09.129Z,69.87
2018-03-29T00:07:36.587Z,79.03
2018-03-29T00:10:04.947Z,59.17
2018-03-29T00:12:32.437Z,71.15
2018-03-29T00:14:59.898Z,75.77
2018-03-29T00:17:27.709Z,68.40
2018-03-29T00:19:55.166Z,77.57
2018-03-29T00:22:22.631Z,65.05
2018-03-29T00:24:50.453Z,69.43
2018-03-29T00:27:17.928Z,69.93
2018-03-29T00:29:45.389Z,74.60
2018-03-29T00:32:13.636Z,59.53
2018-03-29T00:34:41.098Z,70.53
2018-03-29T00:37:08.569Z,56.03
2018-03-29T00:39:36.945Z,51.67
2018-03-29T00:42:04.406Z,57.53
2018-03-29T00:44:31.870Z,57.87
2018-03-29T00:47:00.316Z,54.50
2018-03-29T00:49:27.773Z,51.47
2018-03-29T00:51:55.239Z,50.43
2018-03-29T00:54:23.138Z,48.77
2018-03-29T00:56:50.607Z,50.83
2018-03-29T00:59:18.081Z,45.70
2018-03-29T01:01:45.919Z,51.90
2018-03-29T01:04:13.383Z,61.40
2018-03-29T01:06:40.857Z,57.70
2018-03-29T01:09:08.915Z,40.37
2018-03-29T01:11:36.754Z,44.30
2018-03-29T01:14:04.788Z,47.40
2018-03-29T01:16:32.817Z,44.27
2018-03-29T01:19:00.370Z,41.47
2018-03-29T01:21:27.836Z,38.30
2018-03-29T01:23:55.469Z,37.20
2018-03-29T01:26:22.929Z,32.00
2018-03-29T01:28:50.402Z,32.27
2018-03-29T01:31:18.205Z,27.83
2018-03-29T01:33:45.679Z,26.97
2018-03-29T01:36:13.139Z,25.90
2018-03-29T01:38:40.893Z,27.33
2018-03-29T01:41:08.381Z,22.70
2018-03-29T01:43:35.850Z,23.08
2018-03-29T01:46:03.574Z,19.07
2018-03-29T01:48:31.037Z,21.73
2018-03-29T01:50:58.500Z,20.27
2018-03-29T01:53:26.243Z,22.08
2018-03-29T01:55:53.705Z,27.50
2018-03-29T01:58:21.177Z,22.13
2018-03-29T02:00:48.772Z,32.17
2018-03-29T02:03:16.229Z,41.05
2018-03-29T02:05:43.692Z,31.62
2018-03-29T02:08:11.369Z,27.30
2018-03-29T02:10:38.821Z,32.93
2018-03-29T02:13:06.693Z,24.43
2018-03-29T02:15:34.444Z,26.43
2018-03-29T02:18:01.911Z,23.20
2018-03-29T02:20:29.381Z,24.77
2018-03-29T02:22:57.065Z,24.63
2018-03-29T02:25:24.532Z,22.03
2018-03-29T02:27:51.995Z,21.97
2018-03-29T02:30:20.010Z,22.73
2018-03-29T02:32:47.510Z,29.50
2018-03-29T02:35:14.974Z,23.07
2018-03-29T02:37:43.000Z,33.70
2018-03-29T02:40:10.482Z,12.07
2018-03-29T02:42:37.945Z,8.20
2018-03-29T02:45:05.694Z,6.30
2018-03-29T02:47:33.155Z,8.77
2018-03-29T02:50:00.601Z,8.97
2018-03-29T02:52:28.399Z,12.00
2018-03-29T02:54:55.871Z,15.93
2018-03-29T02:57:23.342Z,15.83
2018-03-29T02:59:51.064Z,18.90
2018-03-29T03:02:18.613Z,20.10
2018-03-29T03:04:46.096Z,19.83
2018-03-29T03:07:14.057Z,20.57
2018-03-29T03:09:41.515Z,17.67
2018-03-29T03:12:08.989Z,20.00
2018-03-29T03:14:37.052Z,20.03
2018-03-29T03:17:04.581Z,15.80
2018-03-29T03:19:32.042Z,16.47
2018-03-29T03:22:00.040Z,13.57
2018-03-29T03:24:27.514Z,13.53
2018-03-29T03:26:54.976Z,12.50
2018-03-29T03:29:22.736Z,15.03
2018-03-29T03:31:50.196Z,10.20
2018-03-29T03:34:17.658Z,10.35
2018-03-29T03:36:45.413Z,9.20
2018-03-29T03:39:12.867Z,5.93
2018-03-29T03:41:40.326Z,5.82
2018-03-29T03:44:07.963Z,5.30
2018-03-29T03:46:35.426Z,5.83
2018-03-29T03:49:02.882Z,4.10
2018-03-29T03:51:30.491Z,4.15
2018-03-29T03:53:57.940Z,5.30
2018-03-29T03:56:25.400Z,3.10
2018-03-29T03:58:53.177Z,4.13
2018-03-29T04:01:20.725Z,4.03
2018-03-29T04:03:48.668Z,3.57
2018-03-29T04:06:16.479Z,2.87
2018-03-29T04:08:43.942Z,7.87
2018-03-29T04:11:11.401Z,2.57
2018-03-29T04:13:39.153Z,3.22
2018-03-29T04:16:07.610Z,3.83
2018-03-29T04:18:35.069Z,4.20
2018-03-29T04:21:03.076Z,2.90
2018-03-29T04:23:31.245Z,3.45
2018-03-29T04:25:58.705Z,2.67
2018-03-29T04:28:26.380Z,2.90
2018-03-29T04:30:53.843Z,2.30
2018-03-29T04:33:21.314Z,2.07
2018-03-29T04:35:49.075Z,2.20
2018-03-29T04:38:16.536Z,1.30
2018-03-29T04:40:43.996Z,1.23
2018-03-29T04:43:11.756Z,1.30
2018-03-29T04:45:39.219Z,1.12
2018-03-29T04:48:06.688Z,1.00
2018-03-29T04:50:34.437Z,1.17
2018-03-29T04:53:01.888Z,0.98
2018-03-29T04:55:29.348Z,1.17
2018-03-29T04:57:57.036Z,0.97
2018-03-29T05:00:24.495Z,1.83
2018-03-29T05:02:51.944Z,1.07
2018-03-29T05:05:19.824Z,0.90
2018-03-29T05:07:47.281Z,0.80
2018-03-29T05:10:14.734Z,2.00
2018-03-29T05:12:42.813Z,1.10
2018-03-29T05:15:10.269Z,2.27
2018-03-29T05:17:40.265Z,1.08
2018-03-29T05:20:08.208Z,1.30
2018-03-29T05:22:35.678Z,6.33
2018-03-29T05:25:03.141Z,0.93
2018-03-29T05:27:31.867Z,1.53
2018-03-29T05:29:59.324Z,1.37
2018-03-29T05:32:26.775Z,9.83
2018-03-29T05:34:54.556Z,2.30
2018-03-29T05:37:22.000Z,2.70
2018-03-29T05:39:49.454Z,2.73
2018-03-29T05:42:17.261Z,3.30
2018-03-29T05:44:44.715Z,1.63
2018-03-29T05:47:12.179Z,1.90
2018-03-29T05:49:39.930Z,1.85
2018-03-29T05:52:07.385Z,2.23
2018-03-29T05:54:34.927Z,2.10
2018-03-29T05:57:02.922Z,1.77
2018-03-29T05:59:30.374Z,2.75
2018-03-29T06:01:57.817Z,3.13
2018-03-29T06:04:26.188Z,1.60
2018-03-29T06:06:53.642Z,2.03
2018-03-29T06:09:21.114Z,1.27
2018-03-29T06:11:48.924Z,5.53
2018-03-29T06:14:16.384Z,4.60
2018-03-29T06:16:46.643Z,2.17
2018-03-29T06:19:14.981Z,1.92
2018-03-29T06:21:42.434Z,3.33
2018-03-29T06:24:09.885Z,1.93
2018-03-29T06:26:37.663Z,4.27
2018-03-29T06:29:05.117Z,2.03
2018-03-29T06:31:32.579Z,2.03
2018-03-29T06:34:00.347Z,2.73
2018-03-29T06:36:27.801Z,2.00
2018-03-29T06:38:55.254Z,2.33
2018-03-29T06:41:23.046Z,1.93
2018-03-29T06:43:50.505Z,1.90
2018-03-29T06:46:17.953Z,2.17
2018-03-29T06:48:45.725Z,2.83
2018-03-29T06:51:13.181Z,8.43
2018-03-29T06:53:40.640Z,3.30
2018-03-29T06:56:08.408Z,5.57
2018-03-29T06:58:35.857Z,4.12
2018-03-29T07:01:03.340Z,3.87
2018-03-29T07:03:31.102Z,2.30
2018-03-29T07:05:58.561Z,2.73
2018-03-29T07:08:26.029Z,12.13
2018-03-29T07:10:53.780Z,2.80
2018-03-29T07:13:21.233Z,2.93
2018-03-29T07:15:48.686Z,2.87
2018-03-29T07:18:16.434Z,4.22
2018-03-29T07:20:45.850Z,2.20
2018-03-29T07:23:13.297Z,3.03
2018-03-29T07:25:41.013Z,2.77
2018-03-29T07:28:08.476Z,4.93
2018-03-29T07:30:35.989Z,3.10
2018-03-29T07:33:03.697Z,3.00
2018-03-29T07:35:31.856Z,16.27
2018-03-29T07:37:59.309Z,1.93
2018-03-29T07:40:27.009Z,2.53
2018-03-29T07:42:54.465Z,2.67
2018-03-29T07:45:21.927Z,3.93
2018-03-29T07:47:49.686Z,2.90
2018-03-29T07:50:17.139Z,2.30
2018-03-29T07:52:44.598Z,3.17
2018-03-29T07:55:12.537Z,2.53
2018-03-29T07:57:39.989Z,2.47
2018-03-29T08:00:07.442Z,2.50
2018-03-29T08:02:35.364Z,3.00
2018-03-29T08:05:02.823Z,3.30
2018-03-29T08:07:30.281Z,2.10
2018-03-29T08:09:58.009Z,16.50
2018-03-29T08:12:25.469Z,5.30
2018-03-29T08:14:52.924Z,3.13
2018-03-29T08:17:20.760Z,2.93
2018-03-29T08:19:48.213Z,3.67
2018-03-29T08:22:15.673Z,5.30
2018-03-29T08:24:43.421Z,4.70
2018-03-29T08:27:10.865Z,3.80
2018-03-29T08:29:38.317Z,3.07
2018-03-29T08:32:06.119Z,3.12
2018-03-29T08:34:33.578Z,3.20
2018-03-29T08:37:01.370Z,2.92
2018-03-29T08:39:29.115Z,2.97
2018-03-29T08:41:56.576Z,3.55
2018-03-29T08:44:24.033Z,3.73
2018-03-29T08:46:52.718Z,3.60
2018-03-29T08:49:20.169Z,4.10
2018-03-29T08:51:47.624Z,3.40
2018-03-29T08:54:15.400Z,2.77
2018-03-29T08:56:42.849Z,4.30
2018-03-29T08:59:10.322Z,4.93
2018-03-29T09:01:38.090Z,3.10
2018-03-29T09:04:05.552Z,2.63
2018-03-29T09:06:33.001Z,5.37
2018-03-29T09:09:00.733Z,2.17
2018-03-29T09:11:28.214Z,2.80
2018-03-29T09:13:55.668Z,3.97
2018-03-29T09:16:23.469Z,2.83
2018-03-29T09:18:50.929Z,2.87
2018-03-29T09:21:18.393Z,3.10
2018-03-29T09:23:46.144Z,3.73
2018-03-29T09:26:13.602Z,3.28
2018-03-29T09:28:41.054Z,2.93
2018-03-29T09:31:09.113Z,2.93
2018-03-29T09:33:36.576Z,3.77
2018-03-29T09:36:04.028Z,3.10
2018-03-29T09:38:32.705Z,2.75
2018-03-29T09:41:00.164Z,2.30
2018-03-29T09:43:27.622Z,4.10
2018-03-29T09:45:55.754Z,3.87
2018-03-29T09:48:23.221Z,2.28
2018-03-29T09:50:50.671Z,2.80
2018-03-29T09:53:18.441Z,3.07
2018-03-29T09:55:45.902Z,2.83
2018-03-29T09:58:13.362Z,6.82
2018-03-29T10:00:41.129Z,2.80
2018-03-29T10:03:09.433Z,3.47
2018-03-29T10:05:37.627Z,3.93
2018-03-29T10:08:05.338Z,3.65
2018-03-29T10:10:32.797Z,2.60
2018-03-29T10:13:01.009Z,2.70
2018-03-29T10:15:28.953Z,5.20
2018-03-29T10:17:56.407Z,3.47
2018-03-29T10:20:23.857Z,5.77
2018-03-29T10:22:51.635Z,3.00
2018-03-29T10:25:19.094Z,2.60
2018-03-29T10:27:46.565Z,2.87
2018-03-29T10:30:14.366Z,4.37
2018-03-29T10:32:41.802Z,2.60
2018-03-29T10:35:09.253Z,3.77
2018-03-29T10:37:37.013Z,2.50
2018-03-29T10:40:05.153Z,2.80
2018-03-29T10:42:32.609Z,2.43
2018-03-29T10:45:00.637Z,3.25
2018-03-29T10:47:28.093Z,2.53
2018-03-29T10:49:55.537Z,4.53
2018-03-29T10:52:23.549Z,2.47
2018-03-29T10:54:51.007Z,2.10
2018-03-29T10:57:18.467Z,2.30
2018-03-29T10:59:46.303Z,2.73
2018-03-29T11:02:13.758Z,2.70
2018-03-29T11:04:41.208Z,3.00
2018-03-29T11:07:08.907Z,2.30
2018-03-29T11:09:36.359Z,8.93
2018-03-29T11:12:03.817Z,2.90
2018-03-29T11:14:31.681Z,2.60
2018-03-29T11:16:59.141Z,2.60
2018-03-29T11:19:26.602Z,4.40
2018-03-29T11:21:54.364Z,3.00
2018-03-29T11:24:21.816Z,3.22
2018-03-29T11:26:49.264Z,2.40
2018-03-29T11:29:17.363Z,3.67
2018-03-29T11:31:44.810Z,3.10
2018-03-29T11:34:12.265Z,2.77
2018-03-29T11:36:40.040Z,2.50
2018-03-29T11:39:07.493Z,3.15
2018-03-29T11:41:35.100Z,3.17
2018-03-29T11:44:03.049Z,2.80
2018-03-29T11:46:30.509Z,2.00
2018-03-29T11:48:57.965Z,3.30
2018-03-29T11:51:25.740Z,2.90
2018-03-29T11:53:53.190Z,3.97
2018-03-29T11:56:20.648Z,5.33
2018-03-29T11:58:48.408Z,2.97
2018-03-29T12:01:15.868Z,3.70
2018-03-29T12:03:43.320Z,2.90
2018-03-29T12:06:11.109Z,3.90
2018-03-29T12:08:38.569Z,4.77
2018-03-29T12:11:06.021Z,7.17
2018-03-29T12:13:33.793Z,3.40
2018-03-29T12:16:01.271Z,3.03
2018-03-29T12:18:28.733Z,3.25
2018-03-29T12:20:56.477Z,9.70
2018-03-29T12:23:23.930Z,1.77
2018-03-29T12:25:51.376Z,3.43
2018-03-29T12:28:19.160Z,4.00
2018-03-29T12:30:46.617Z,7.60
2018-03-29T12:33:14.073Z,7.13
2018-03-29T12:35:42.162Z,3.30
2018-03-29T12:38:09.625Z,5.20
2018-03-29T12:40:37.088Z,4.17
2018-03-29T12:43:07.305Z,2.67
2018-03-29T12:45:34.772Z,13.10
2018-03-29T12:48:02.239Z,4.37
2018-03-29T12:50:29.993Z,3.75
2018-03-29T12:52:57.449Z,4.90
2018-03-29T12:55:36.973Z,2.83
2018-03-29T12:58:07.738Z,3.27
2018-03-29T13:00:35.197Z,2.20
2018-03-29T13:03:02.953Z,3.00
2018-03-29T13:05:30.404Z,3.63
2018-03-29T13:07:57.865Z,2.70
2018-03-29T13:10:25.651Z,5.70
2018-03-29T13:12:53.156Z,6.23
2018-03-29T13:15:21.137Z,3.33
2018-03-29T13:17:48.954Z,3.33
2018-03-29T13:20:16.414Z,3.97
2018-03-29T13:22:43.881Z,2.90
2018-03-29T13:25:11.650Z,3.37
2018-03-29T13:27:39.106Z,3.50
2018-03-29T13:30:06.564Z,2.57
2018-03-29T13:32:34.374Z,3.00
2018-03-29T13:35:01.834Z,2.27
2018-03-29T13:37:29.301Z,3.42
2018-03-29T13:39:57.698Z,3.40
2018-03-29T13:42:25.159Z,2.93
2018-03-29T13:44:54.769Z,3.40
2018-03-29T13:47:22.589Z,8.77
2018-03-29T13:49:50.049Z,2.80
2018-03-29T13:52:17.506Z,3.20
2018-03-29T13:54:45.202Z,4.13
2018-03-29T13:57:12.662Z,2.90
2018-03-29T13:59:40.124Z,3.47
2018-03-29T14:02:07.786Z,2.30
2018-03-29T14:04:35.240Z,5.22
2018-03-29T14:07:02.711Z,3.90
2018-03-29T14:09:30.533Z,6.43
2018-03-29T14:11:57.981Z,8.13
2018-03-29T14:14:25.437Z,3.47
2018-03-29T14:16:53.203Z,2.83
2018-03-29T14:19:20.680Z,4.60
2018-03-29T14:21:48.140Z,4.43
2018-03-29T14:24:15.854Z,3.40
2018-03-29T14:26:43.305Z,4.07
2018-03-29T14:29:10.763Z,3.50
2018-03-29T14:31:38.603Z,4.10
2018-03-29T14:34:06.058Z,3.87
2018-03-29T14:36:33.527Z,5.80
2018-03-29T14:39:01.288Z,4.30
2018-03-29T14:41:28.791Z,5.47
2018-03-29T14:43:56.240Z,7.20
2018-03-29T14:46:24.262Z,3.10
2018-03-29T14:48:51.723Z,4.57
2018-03-29T14:51:19.171Z,4.03
2018-03-29T14:53:46.955Z,4.50
2018-03-29T14:56:14.407Z,3.00
2018-03-29T14:58:41.862Z,3.77
2018-03-29T15:01:09.663Z,4.60
2018-03-29T15:03:37.121Z,4.20
2018-03-29T15:06:04.572Z,4.03
2018-03-29T15:08:33.249Z,3.47
2018-03-29T15:11:00.703Z,5.20
2018-03-29T15:13:28.172Z,10.73
2018-03-29T15:15:55.898Z,4.33
2018-03-29T15:18:23.355Z,4.57
2018-03-29T15:20:50.805Z,4.10
2018-03-29T15:23:18.553Z,4.67
2018-03-29T15:25:46.006Z,2.97
2018-03-29T15:28:13.455Z,6.07
2018-03-29T15:30:41.033Z,2.90
2018-03-29T15:33:08.491Z,3.30
2018-03-29T15:35:36.403Z,6.95
2018-03-29T15:38:03.999Z,6.17
2018-03-29T15:40:31.465Z,15.07
2018-03-29T15:42:58.924Z,12.68
2018-03-29T15:45:26.683Z,4.20
2018-03-29T15:47:54.837Z,8.20
2018-03-29T15:50:22.298Z,5.70
2018-03-29T15:52:50.054Z,6.60
2018-03-29T15:55:17.517Z,4.73
2018-03-29T15:57:44.977Z,3.90
2018-03-29T16:00:12.669Z,3.03
2018-03-29T16:02:40.121Z,5.17
2018-03-29T16:05:07.570Z,4.10
2018-03-29T16:07:35.356Z,2.87
2018-03-29T16:10:02.834Z,3.47
2018-03-29T16:12:30.318Z,3.13
2018-03-29T16:14:58.051Z,5.33
2018-03-29T16:17:25.506Z,3.95
2018-03-29T16:19:52.952Z,2.55
2018-03-29T16:22:20.730Z,2.83
2018-03-29T16:24:48.195Z,2.87
2018-03-29T16:27:15.666Z,3.55
2018-03-29T16:29:43.422Z,2.90
2018-03-29T16:32:10.873Z,4.10
2018-03-29T16:34:38.336Z,14.63
2018-03-29T16:37:05.999Z,3.17
2018-03-29T16:39:33.453Z,3.40
2018-03-29T16:42:00.906Z,3.72
2018-03-29T16:44:28.797Z,15.83
2018-03-29T16:46:56.250Z,7.40
2018-03-29T16:49:24.399Z,5.43
2018-03-29T16:51:52.106Z,5.57
2018-03-29T16:54:19.570Z,9.57
2018-03-29T16:56:47.019Z,7.50
2018-03-29T16:59:15.088Z,3.90
2018-03-29T17:01:42.547Z,2.63
2018-03-29T17:04:10.002Z,5.33
2018-03-29T17:06:38.089Z,3.90
2018-03-29T17:09:05.555Z,4.77
2018-03-29T17:11:33.021Z,4.30
2018-03-29T17:14:00.773Z,4.70
2018-03-29T17:16:28.238Z,5.67
2018-03-29T17:18:55.693Z,5.05
2018-03-29T17:21:23.466Z,3.67
2018-03-29T17:23:50.953Z,5.83
2018-03-29T17:26:19.048Z,5.27
2018-03-29T17:28:47.250Z,8.80
2018-03-29T17:31:14.717Z,4.70
2018-03-29T17:33:42.186Z,6.00
2018-03-29T17:36:10.118Z,6.07
2018-03-29T17:38:37.541Z,7.43
2018-03-29T17:41:05.029Z,12.63
2018-03-29T17:43:32.772Z,8.55
2018-03-29T17:46:00.877Z,7.93
2018-03-29T17:48:28.680Z,8.17
2018-03-29T17:50:56.982Z,4.97
2018-03-29T17:53:24.443Z,6.70
2018-03-29T17:55:51.944Z,11.57
2018-03-29T17:58:19.689Z,7.67
2018-03-29T18:00:47.133Z,9.37
2018-03-29T18:03:14.584Z,8.70
2018-03-29T18:05:42.356Z,10.40
2018-03-29T18:08:09.813Z,7.90
2018-03-29T18:10:37.267Z,5.57
2018-03-29T18:13:05.032Z,5.60
2018-03-29T18:15:32.518Z,17.37
2018-03-29T18:17:59.969Z,6.93
2018-03-29T18:20:27.706Z,6.27
2018-03-29T18:22:55.163Z,6.77
2018-03-29T18:25:22.627Z,9.47
2018-03-29T18:27:50.462Z,9.00
2018-03-29T18:30:18.169Z,8.27
2018-03-29T18:32:45.650Z,6.83
2018-03-29T18:35:13.433Z,13.40
2018-03-29T18:37:40.904Z,17.73
2018-03-29T18:40:08.674Z,8.00
2018-03-29T18:42:37.089Z,6.60
2018-03-29T18:45:04.780Z,12.18
2018-03-29T18:47:32.261Z,5.65
2018-03-29T18:49:59.985Z,7.13
2018-03-29T18:52:28.238Z,12.87
2018-03-29T18:54:55.777Z,5.07
2018-03-29T18:57:23.626Z,4.83
2018-03-29T18:59:51.092Z,4.83
2018-03-29T19:02:18.540Z,5.50
2018-03-29T19:04:46.171Z,4.43
2018-03-29T19:07:13.670Z,4.78
2018-03-29T19:09:41.162Z,6.60
2018-03-29T19:12:09.064Z,7.45
2018-03-29T19:14:36.629Z,4.13
2018-03-29T19:17:04.074Z,4.20
2018-03-29T19:19:32.285Z,4.73
2018-03-29T19:21:59.734Z,4.17
2018-03-29T19:24:27.205Z,17.80
2018-03-29T19:26:55.425Z,14.27
2018-03-29T19:29:23.193Z,6.87
2018-03-29T19:31:50.677Z,6.13
2018-03-29T19:34:18.629Z,7.53
2018-03-29T19:36:46.088Z,10.27
2018-03-29T19:39:13.867Z,5.30
2018-03-29T19:41:42.414Z,5.90
2018-03-29T19:44:09.869Z,6.13
2018-03-29T19:46:37.336Z,5.90
2018-03-29T19:49:05.455Z,8.68
2018-03-29T19:51:32.922Z,5.60
2018-03-29T19:54:01.813Z,14.63
2018-03-29T19:56:30.069Z,6.20
2018-03-29T19:58:57.516Z,6.10
2018-03-29T20:01:24.973Z,7.57
2018-03-29T20:03:52.730Z,9.10
2018-03-29T20:06:20.351Z,8.10
2018-03-29T20:08:47.822Z,13.87
2018-03-29T20:11:15.536Z,10.13
2018-03-29T20:13:43.707Z,8.77
2018-03-29T20:16:11.584Z,8.45
2018-03-29T20:18:39.320Z,13.63
2018-03-29T20:21:07.012Z,12.02
2018-03-29T20:23:34.593Z,8.47
2018-03-29T20:26:02.293Z,12.27
2018-03-29T20:28:29.791Z,9.77
2018-03-29T20:30:57.244Z,9.40
2018-03-29T20:33:25.028Z,10.00
2018-03-29T20:35:52.651Z,11.00
2018-03-29T20:38:20.113Z,10.17
2018-03-29T20:40:47.997Z,10.57
2018-03-29T20:43:15.484Z,11.77
2018-03-29T20:45:42.936Z,8.30
2018-03-29T20:48:10.644Z,8.90
2018-03-29T20:50:38.106Z,11.47
2018-03-29T20:53:06.266Z,10.30
2018-03-29T20:55:34.608Z,12.33
2018-03-29T20:58:02.073Z,10.93
2018-03-29T21:00:29.551Z,11.13
2018-03-29T21:02:57.599Z,9.27
2018-03-29T21:05:25.076Z,12.50
2018-03-29T21:07:52.549Z,10.43
2018-03-29T21:10:20.601Z,11.20
2018-03-29T21:12:48.077Z,10.52
2018-03-29T21:15:15.571Z,13.62
2018-03-29T21:17:43.400Z,9.77
2018-03-29T21:20:10.884Z,11.13
2018-03-29T21:22:38.366Z,11.13
2018-03-29T21:25:06.278Z,12.00
2018-03-29T21:27:33.753Z,11.55
2018-03-29T21:30:01.236Z,13.37
2018-03-29T21:32:28.980Z,13.07
2018-03-29T21:34:56.468Z,10.57
2018-03-29T21:37:23.945Z,14.93
2018-03-29T21:39:51.678Z,11.87
2018-03-29T21:42:19.175Z,11.53
2018-03-29T21:44:46.665Z,14.40
2018-03-29T21:47:15.266Z,13.63
2018-03-29T21:49:42.764Z,16.02
2018-03-29T21:52:10.244Z,13.07
2018-03-29T21:54:37.962Z,15.70
2018-03-29T21:57:05.793Z,13.53
2018-03-29T21:59:33.309Z,20.80
2018-03-29T22:02:01.145Z,15.07
2018-03-29T22:04:28.620Z,13.93
2018-03-29T22:06:56.127Z,16.90
2018-03-29T22:09:23.945Z,17.23
2018-03-29T22:11:51.437Z,15.23
2018-03-29T22:14:18.920Z,19.70
2018-03-29T22:16:46.638Z,18.33
2018-03-29T22:19:14.117Z,16.50
2018-03-29T22:21:41.593Z,20.17
2018-03-29T22:24:09.618Z,18.90
2018-03-29T22:26:37.101Z,18.10
2018-03-29T22:29:04.591Z,22.37
2018-03-29T22:31:32.642Z,19.37
2018-03-29T22:34:00.787Z,25.80
2018-03-29T22:36:28.265Z,20.40
2018-03-29T22:38:56.197Z,17.63
2018-03-29T22:41:23.665Z,17.93
2018-03-29T22:43:51.156Z,18.57
2018-03-29T22:46:20.136Z,22.38
2018-03-29T22:48:47.605Z,18.07
2018-03-29T22:51:15.082Z,19.42
2018-03-29T22:53:42.832Z,22.03
2018-03-29T22:56:10.317Z,26.30
2018-03-29T22:58:38.420Z,20.33
2018-03-29T23:01:06.141Z,18.97
2018-03-29T23:03:33.637Z,18.05
2018-03-29T23:06:01.146Z,17.87
2018-03-29T23:08:29.429Z,21.50
2018-03-29T23:10:56.909Z,19.03
2018-03-29T23:13:24.391Z,18.53
2018-03-29T23:15:52.124Z,20.60
2018-03-29T23:18:19.621Z,17.00
2018-03-29T23:20:47.110Z,25.20
2018-03-29T23:23:15.101Z,17.73
2018-03-29T23:25:42.578Z,16.73
2018-03-29T23:28:10.067Z,18.60
2018-03-29T23:30:38.106Z,24.70
2018-03-29T23:33:05.595Z,19.60
2018-03-29T23:35:33.073Z,19.40
2018-03-29T23:38:01.097Z,24.27
2018-03-29T23:40:28.577Z,19.40
2018-03-29T23:42:56.050Z,19.90
2018-03-29T23:45:24.092Z,29.73
2018-03-29T23:47:51.570Z,21.67
2018-03-29T23:50:19.070Z,23.10
2018-03-29T23:52:46.782Z,19.80
2018-03-29T23:55:14.258Z,19.40
2018-03-29T23:57:41.742Z,23.35
